PWSweather.com
Personal Weather Stations
Station Observations
MACKBIG
Historic Main Street, Unionville, ON L3R6A5

Historic Main StreetUnionville, ON L3R6A5

Lat: 43.875506, Lon: -79.312903

Elevation: 590

Station Type: Davis VP2 + 6163

http://www.mackweather.com

High Low Average
Temperature 50.5°F10.3°C 22.5°F-5.3°C 43.4°F6.3°C
Dew Point 33.7°F0.9°C 18.1°F-7.7°C 30.7°F-0.7°C
Winds 10.0 mph 16.1 kmh Calm Calm 5.0 mph W8.0 kmh W
Wind Gusts 20.0 mph32.2 kmh -- 8.0 mph12.9 kmh
Humidity 88% 49% 62%
Pressure 30.08 in1018.6 mb 29.96 in1014.6 mb -
Precipitation 0.00 in0.0 mm - -
Hour Temp Dew Point Humidity Winds Wind Gusts Pressure Precip Precip Rate Daily Precip Total
07:20 AM 22.5°F-5.3°C 18.1°F-7.7°C 83% Calm Calm -- 30.07 in1018.3 mb - 0.00 in0.0 mm 0.00 in0.0 mm
07:30 AM 22.8°F-5.1°C 18.7°F-7.4°C 84% Calm Calm -- 30.08 in1018.6 mb - 0.00 in0.0 mm 0.00 in0.0 mm
07:40 AM 23.3°F-4.8°C 19.5°F-6.9°C 85% Calm Calm -- 30.07 in1018.3 mb - 0.00 in0.0 mm 0.00 in0.0 mm
07:50 AM 23.9°F-4.5°C 20.0°F-6.7°C 85% Calm Calm -- 30.07 in1018.3 mb - 0.00 in0.0 mm 0.00 in0.0 mm
08:00 AM 24.5°F-4.2°C 20.9°F-6.2°C 86% Calm Calm -- 30.07 in1018.3 mb - 0.00 in0.0 mm 0.00 in0.0 mm
08:10 AM 25.1°F-3.8°C 21.5°F-5.8°C 86% Calm Calm -- 30.07 in1018.3 mb - 0.00 in0.0 mm 0.00 in0.0 mm
08:20 AM 25.8°F-3.4°C 22.5°F-5.3°C 87% Calm Calm -- 30.07 in1018.3 mb - 0.00 in0.0 mm 0.00 in0.0 mm
08:30 AM 26.7°F-2.9°C 23.3°F-4.8°C 87% Calm Calm -- 30.07 in1018.3 mb - 0.00 in0.0 mm 0.00 in0.0 mm
08:40 AM 27.6°F-2.4°C 24.6°F-4.1°C 88% Calm Calm -- 30.07 in1018.3 mb - 0.00 in0.0 mm 0.00 in0.0 mm
08:50 AM 28.8°F-1.8°C 25.7°F-3.5°C 88% Calm Calm -- 30.07 in1018.3 mb - 0.00 in0.0 mm 0.00 in0.0 mm
09:00 AM 30.1°F-1.1°C 27.0°F-2.8°C 88% Calm Calm -- 30.07 in1018.3 mb - 0.00 in0.0 mm 0.00 in0.0 mm
09:10 AM 31.6°F-0.2°C 28.4°F-2.0°C 88% Calm Calm -- 30.07 in1018.3 mb - 0.00 in0.0 mm 0.00 in0.0 mm
09:20 AM 32.8°F0.4°C 29.6°F-1.3°C 88% Calm Calm -- 30.07 in1018.3 mb - 0.00 in0.0 mm 0.00 in0.0 mm
09:30 AM 34.2°F1.2°C 30.8°F-0.7°C 87% Calm Calm -- 30.06 in1017.9 mb - 0.00 in0.0 mm 0.00 in0.0 mm
09:40 AM 35.3°F1.8°C 31.2°F-0.4°C 85% Calm Calm -- 30.05 in1017.6 mb - 0.00 in0.0 mm 0.00 in0.0 mm
09:50 AM 36.5°F2.5°C 31.9°F-0.1°C 83% Calm Calm -- 30.05 in1017.6 mb - 0.00 in0.0 mm 0.00 in0.0 mm
10:00 AM 38.1°F3.4°C 32.5°F0.3°C 80% Calm Calm -- 30.05 in1017.6 mb - 0.00 in0.0 mm 0.00 in0.0 mm
10:10 AM 39.8°F4.3°C 32.1°F0.1°C 74% 5.0 mph WSW8.0 kmh WSW 6.0 mph9.7 kmh 30.06 in1017.9 mb - 0.00 in0.0 mm 0.00 in0.0 mm
10:20 AM 41.1°F5.1°C 32.0°F0.0°C 70% Calm Calm -- 30.06 in1017.9 mb - 0.00 in0.0 mm 0.00 in0.0 mm
10:30 AM 42.7°F5.9°C 32.5°F0.3°C 67% 1.0 mph W1.6 kmh W 5.0 mph8.0 kmh 30.06 in1017.9 mb - 0.00 in0.0 mm 0.00 in0.0 mm
10:40 AM 43.8°F6.6°C 32.4°F0.2°C 64% 3.0 mph WSW4.8 kmh WSW 7.0 mph11.3 kmh 30.06 in1017.9 mb - 0.00 in0.0 mm 0.00 in0.0 mm
10:50 AM 44.5°F6.9°C 32.3°F0.2°C 62% 1.0 mph WSW1.6 kmh WSW 5.0 mph8.0 kmh 30.05 in1017.6 mb - 0.00 in0.0 mm 0.00 in0.0 mm
11:00 AM 45.4°F7.4°C 32.7°F0.4°C 61% 1.0 mph W1.6 kmh W 8.0 mph12.9 kmh 30.06 in1017.9 mb - 0.00 in0.0 mm 0.00 in0.0 mm
11:10 AM 46.1°F7.8°C 32.1°F0.1°C 58% 5.0 mph WSW8.0 kmh WSW 6.0 mph9.7 kmh 30.05 in1017.6 mb - 0.00 in0.0 mm 0.00 in0.0 mm
11:20 AM 46.7°F8.2°C 32.2°F0.1°C 57% 5.0 mph SW8.0 kmh SW 8.0 mph12.9 kmh 30.04 in1017.3 mb - 0.00 in0.0 mm 0.00 in0.0 mm
11:30 AM 47.1°F8.4°C 32.2°F0.1°C 56% 5.0 mph W8.0 kmh W 7.0 mph11.3 kmh 30.04 in1017.3 mb - 0.00 in0.0 mm 0.00 in0.0 mm
11:40 AM 47.2°F8.4°C 31.8°F-0.1°C 55% 3.0 mph W4.8 kmh W 7.0 mph11.3 kmh 30.04 in1017.3 mb - 0.00 in0.0 mm 0.00 in0.0 mm
11:50 AM 47.3°F8.5°C 31.9°F-0.1°C 55% 6.0 mph SW9.7 kmh SW 8.0 mph12.9 kmh 30.03 in1016.9 mb - 0.00 in0.0 mm 0.00 in0.0 mm
12:00 PM 47.6°F8.7°C 32.2°F0.1°C 55% 7.0 mph SW11.3 kmh SW 10.0 mph16.1 kmh 30.03 in1016.9 mb - 0.00 in0.0 mm 0.00 in0.0 mm
12:10 PM 48.0°F8.9°C 32.1°F0.1°C 54% 5.0 mph WSW8.0 kmh WSW 6.0 mph9.7 kmh 30.03 in1016.9 mb - 0.00 in0.0 mm 0.00 in0.0 mm
12:20 PM 48.2°F9.0°C 33.2°F0.7°C 56% 3.0 mph WSW4.8 kmh WSW 7.0 mph11.3 kmh 30.02 in1016.6 mb - 0.00 in0.0 mm 0.00 in0.0 mm
12:30 PM 48.5°F9.2°C 32.1°F0.1°C 53% 8.0 mph WSW12.9 kmh WSW 12.0 mph19.3 kmh 30.01 in1016.3 mb - 0.00 in0.0 mm 0.00 in0.0 mm
12:40 PM 48.6°F9.2°C 32.2°F0.1°C 53% 8.0 mph WSW12.9 kmh WSW 17.0 mph27.4 kmh 30.01 in1016.3 mb - 0.00 in0.0 mm 0.00 in0.0 mm
12:50 PM 48.8°F9.3°C 32.4°F0.2°C 53% 3.0 mph W4.8 kmh W 7.0 mph11.3 kmh 30.00 in1015.9 mb - 0.00 in0.0 mm 0.00 in0.0 mm
01:00 PM 49.6°F9.8°C 32.7°F0.4°C 52% 7.0 mph WSW11.3 kmh WSW 12.0 mph19.3 kmh 30.00 in1015.9 mb - 0.00 in0.0 mm 0.00 in0.0 mm
01:10 PM 50.3°F10.2°C 32.8°F0.4°C 51% 5.0 mph WNW8.0 kmh WNW 12.0 mph19.3 kmh 29.99 in1015.6 mb - 0.00 in0.0 mm 0.00 in0.0 mm
01:20 PM 50.2°F10.1°C 32.3°F0.2°C 50% 5.0 mph WSW8.0 kmh WSW 12.0 mph19.3 kmh 29.99 in1015.6 mb - 0.00 in0.0 mm 0.00 in0.0 mm
01:30 PM 49.9°F9.9°C 32.0°F0.0°C 50% 9.0 mph W14.5 kmh W 12.0 mph19.3 kmh 29.99 in1015.6 mb - 0.00 in0.0 mm 0.00 in0.0 mm
01:40 PM 50.0°F10.0°C 32.1°F0.1°C 50% 7.0 mph W11.3 kmh W 12.0 mph19.3 kmh 29.99 in1015.6 mb - 0.00 in0.0 mm 0.00 in0.0 mm
01:50 PM 50.3°F10.2°C 32.4°F0.2°C 50% 6.0 mph WSW9.7 kmh WSW 8.0 mph12.9 kmh 29.99 in1015.6 mb - 0.00 in0.0 mm 0.00 in0.0 mm
02:00 PM 50.5°F10.3°C 32.5°F0.3°C 50% 6.0 mph WSW9.7 kmh WSW 14.0 mph22.5 kmh 29.99 in1015.6 mb - 0.00 in0.0 mm 0.00 in0.0 mm
02:10 PM 50.2°F10.1°C 31.7°F-0.2°C 49% 8.0 mph W12.9 kmh W 20.0 mph32.2 kmh 29.99 in1015.6 mb - 0.00 in0.0 mm 0.00 in0.0 mm
02:20 PM 49.6°F9.8°C 31.2°F-0.4°C 49% 5.0 mph WNW8.0 kmh WNW 12.0 mph19.3 kmh 29.99 in1015.6 mb - 0.00 in0.0 mm 0.00 in0.0 mm
02:30 PM 49.1°F9.5°C 31.3°F-0.4°C 50% 8.0 mph WNW12.9 kmh WNW 16.0 mph25.7 kmh 29.99 in1015.6 mb - 0.00 in0.0 mm 0.00 in0.0 mm
02:40 PM 49.1°F9.5°C 32.3°F0.2°C 52% 9.0 mph WNW14.5 kmh WNW 12.0 mph19.3 kmh 29.99 in1015.6 mb - 0.00 in0.0 mm 0.00 in0.0 mm
02:50 PM 49.1°F9.5°C 31.7°F-0.2°C 51% 7.0 mph WNW11.3 kmh WNW 12.0 mph19.3 kmh 29.98 in1015.2 mb - 0.00 in0.0 mm 0.00 in0.0 mm
03:00 PM 48.7°F9.3°C 31.8°F-0.1°C 52% 7.0 mph WNW11.3 kmh WNW 12.0 mph19.3 kmh 29.98 in1015.2 mb - 0.00 in0.0 mm 0.00 in0.0 mm
03:10 PM 48.7°F9.3°C 32.3°F0.2°C 53% 10.0 mph WNW16.1 kmh WNW 15.0 mph24.1 kmh 29.98 in1015.2 mb - 0.00 in0.0 mm 0.00 in0.0 mm
03:20 PM 48.4°F9.1°C 31.6°F-0.2°C 52% 9.0 mph W14.5 kmh W 14.0 mph22.5 kmh 29.98 in1015.2 mb - 0.00 in0.0 mm 0.00 in0.0 mm
03:30 PM 48.1°F8.9°C 31.8°F-0.1°C 53% 7.0 mph WNW11.3 kmh WNW 13.0 mph20.9 kmh 29.98 in1015.2 mb - 0.00 in0.0 mm 0.00 in0.0 mm
03:40 PM 48.1°F8.9°C 31.8°F-0.1°C 53% 7.0 mph WNW11.3 kmh WNW 13.0 mph20.9 kmh 29.98 in1015.2 mb - 0.00 in0.0 mm 0.00 in0.0 mm
03:50 PM 48.2°F9.0°C 32.3°F0.2°C 54% 7.0 mph W11.3 kmh W 12.0 mph19.3 kmh 29.97 in1014.9 mb - 0.00 in0.0 mm 0.00 in0.0 mm
04:00 PM 48.4°F9.1°C 32.5°F0.3°C 54% 6.0 mph W9.7 kmh W 8.0 mph12.9 kmh 29.97 in1014.9 mb - 0.00 in0.0 mm 0.00 in0.0 mm
04:10 PM 48.7°F9.3°C 32.3°F0.2°C 53% 7.0 mph W11.3 kmh W 13.0 mph20.9 kmh 29.97 in1014.9 mb - 0.00 in0.0 mm 0.00 in0.0 mm
04:20 PM 48.8°F9.3°C 32.4°F0.2°C 53% 8.0 mph W12.9 kmh W 12.0 mph19.3 kmh 29.97 in1014.9 mb - 0.00 in0.0 mm 0.00 in0.0 mm
04:30 PM 48.7°F9.3°C 32.3°F0.2°C 53% 8.0 mph W12.9 kmh W 12.0 mph19.3 kmh 29.97 in1014.9 mb - 0.00 in0.0 mm 0.00 in0.0 mm
04:40 PM 49.1°F9.5°C 32.7°F0.4°C 53% 7.0 mph WSW11.3 kmh WSW 8.0 mph12.9 kmh 29.96 in1014.6 mb - 0.00 in0.0 mm 0.00 in0.0 mm
04:50 PM 49.6°F9.8°C 33.2°F0.7°C 53% 8.0 mph W12.9 kmh W 12.0 mph19.3 kmh 29.97 in1014.9 mb - 0.00 in0.0 mm 0.00 in0.0 mm
05:00 PM 49.9°F9.9°C 33.0°F0.6°C 52% 8.0 mph W12.9 kmh W 18.0 mph29.0 kmh 29.96 in1014.6 mb - 0.00 in0.0 mm 0.00 in0.0 mm
05:10 PM 49.7°F9.8°C 32.8°F0.4°C 52% 7.0 mph WSW11.3 kmh WSW 8.0 mph12.9 kmh 29.97 in1014.9 mb - 0.00 in0.0 mm 0.00 in0.0 mm
05:20 PM 49.4°F9.7°C 33.0°F0.6°C 53% 7.0 mph WSW11.3 kmh WSW 13.0 mph20.9 kmh 29.96 in1014.6 mb - 0.00 in0.0 mm 0.00 in0.0 mm
05:30 PM 49.4°F9.7°C 33.0°F0.6°C 53% 7.0 mph W11.3 kmh W 14.0 mph22.5 kmh 29.96 in1014.6 mb - 0.00 in0.0 mm 0.00 in0.0 mm
05:40 PM 48.9°F9.4°C 32.5°F0.3°C 53% 7.0 mph WSW11.3 kmh WSW 8.0 mph12.9 kmh 29.96 in1014.6 mb - 0.00 in0.0 mm 0.00 in0.0 mm
05:50 PM 48.6°F9.2°C 32.7°F0.4°C 54% 7.0 mph WSW11.3 kmh WSW 12.0 mph19.3 kmh 29.96 in1014.6 mb - 0.00 in0.0 mm 0.00 in0.0 mm
06:00 PM 48.3°F9.1°C 32.9°F0.5°C 55% 6.0 mph WSW9.7 kmh WSW 12.0 mph19.3 kmh 29.97 in1014.9 mb - 0.00 in0.0 mm 0.00 in0.0 mm
06:10 PM 48.0°F8.9°C 33.1°F0.6°C 56% 3.0 mph WSW4.8 kmh WSW 6.0 mph9.7 kmh 29.98 in1015.2 mb - 0.00 in0.0 mm 0.00 in0.0 mm
06:20 PM 47.8°F8.8°C 32.8°F0.4°C 56% 7.0 mph W11.3 kmh W 8.0 mph12.9 kmh 29.98 in1015.2 mb - 0.00 in0.0 mm 0.00 in0.0 mm
06:30 PM 47.6°F8.7°C 32.7°F0.4°C 56% 8.0 mph W12.9 kmh W 13.0 mph20.9 kmh 29.98 in1015.2 mb - 0.00 in0.0 mm 0.00 in0.0 mm
06:40 PM 47.3°F8.5°C 33.3°F0.7°C 58% 7.0 mph NW11.3 kmh NW 12.0 mph19.3 kmh 29.98 in1015.2 mb - 0.00 in0.0 mm 0.00 in0.0 mm
06:50 PM 46.4°F8.0°C 33.7°F0.9°C 61% 6.0 mph NW9.7 kmh NW 9.0 mph14.5 kmh 29.99 in1015.6 mb - 0.00 in0.0 mm 0.00 in0.0 mm
07:00 PM 45.5°F7.5°C 33.6°F0.9°C 63% 7.0 mph NW11.3 kmh NW 12.0 mph19.3 kmh 29.99 in1015.6 mb - 0.00 in0.0 mm 0.00 in0.0 mm
07:10 PM 44.5°F6.9°C 33.1°F0.6°C 64% 7.0 mph NNW11.3 kmh NNW 12.0 mph19.3 kmh 30.00 in1015.9 mb - 0.00 in0.0 mm 0.00 in0.0 mm
07:20 PM 43.2°F6.2°C 32.6°F0.3°C 66% 7.0 mph NW11.3 kmh NW 12.0 mph19.3 kmh 30.01 in1016.3 mb - 0.00 in0.0 mm 0.00 in0.0 mm